sensor_id;sensor_type;location;lat;lon;timestamp;pressure;altitude;pressure_sealevel;temperature;humidity
22206;BME280;11272;50.104;8.754;2023-04-20T00:00:31;100753.03;;;9.17;43.57
22206;BME280;11272;50.104;8.754;2023-04-20T00:03:00;100752.16;;;9.15;43.69
22206;BME280;11272;50.104;8.754;2023-04-20T00:05:26;100752.19;;;9.12;43.55
22206;BME280;11272;50.104;8.754;2023-04-20T00:07:51;100744.25;;;9.09;44.01
22206;BME280;11272;50.104;8.754;2023-04-20T00:10:19;100741.66;;;9.06;43.92
22206;BME280;11272;50.104;8.754;2023-04-20T00:12:47;100735.47;;;9.04;44.16
22206;BME280;11272;50.104;8.754;2023-04-20T00:15:13;100727.59;;;9.01;43.92
22206;BME280;11272;50.104;8.754;2023-04-20T00:17:39;100724.06;;;8.98;44.16
22206;BME280;11272;50.104;8.754;2023-04-20T00:20:05;100718.81;;;8.93;44.52
22206;BME280;11272;50.104;8.754;2023-04-20T00:22:34;100711.81;;;8.89;44.57
22206;BME280;11272;50.104;8.754;2023-04-20T00:25:00;100714.50;;;8.86;44.58
22206;BME280;11272;50.104;8.754;2023-04-20T00:27:27;100706.56;;;8.81;44.85
22206;BME280;11272;50.104;8.754;2023-04-20T00:29:52;100699.56;;;8.79;45.02
22206;BME280;11272;50.104;8.754;2023-04-20T00:32:20;100705.78;;;8.75;44.83
22206;BME280;11272;50.104;8.754;2023-04-20T00:34:49;100700.50;;;8.73;44.99
22206;BME280;11272;50.104;8.754;2023-04-20T00:37:15;100694.31;;;8.71;45.03
22206;BME280;11272;50.104;8.754;2023-04-20T00:39:41;100701.38;;;8.72;45.67
22206;BME280;11272;50.104;8.754;2023-04-20T00:42:07;100689.06;;;8.70;45.32
22206;BME280;11272;50.104;8.754;2023-04-20T00:44:33;100691.78;;;8.62;45.59
22206;BME280;11272;50.104;8.754;2023-04-20T00:46:59;100698.84;;;8.62;45.50
22206;BME280;11272;50.104;8.754;2023-04-20T00:49:27;100694.41;;;8.64;45.81
22206;BME280;11272;50.104;8.754;2023-04-20T00:51:58;100688.25;;;8.63;45.67
22206;BME280;11272;50.104;8.754;2023-04-20T00:54:25;100686.47;;;8.62;45.93
22206;BME280;11272;50.104;8.754;2023-04-20T00:56:53;100682.06;;;8.63;45.83
22206;BME280;11272;50.104;8.754;2023-04-20T00:59:21;100681.13;;;8.67;46.05
22206;BME280;11272;50.104;8.754;2023-04-20T01:01:48;100676.72;;;8.69;46.06
22206;BME280;11272;50.104;8.754;2023-04-20T01:04:14;100675.78;;;8.73;45.92
22206;BME280;11272;50.104;8.754;2023-04-20T01:06:43;100665.19;;;8.76;46.32
22206;BME280;11272;50.104;8.754;2023-04-20T01:09:09;100655.44;;;8.78;46.01
22206;BME280;11272;50.104;8.754;2023-04-20T01:11:35;100651.00;;;8.80;46.19
22206;BME280;11272;50.104;8.754;2023-04-20T01:14:00;100651.00;;;8.80;46.43
22206;BME280;11272;50.104;8.754;2023-04-20T01:16:26;100651.06;;;8.75;45.99
22206;BME280;11272;50.104;8.754;2023-04-20T01:18:52;100649.31;;;8.73;46.25
22206;BME280;11272;50.104;8.754;2023-04-20T01:21:21;100649.31;;;8.71;46.17
22206;BME280;11272;50.104;8.754;2023-04-20T01:23:50;100652.91;;;8.69;46.25
22206;BME280;11272;50.104;8.754;2023-04-20T01:26:18;100642.38;;;8.63;46.40
22206;BME280;11272;50.104;8.754;2023-04-20T01:28:46;100653.00;;;8.60;46.53
22206;BME280;11272;50.104;8.754;2023-04-20T01:31:14;100646.88;;;8.55;46.31
22206;BME280;11272;50.104;8.754;2023-04-20T01:33:39;100645.13;;;8.51;46.63
22206;BME280;11272;50.104;8.754;2023-04-20T01:36:06;100638.09;;;8.48;46.35
22206;BME280;11272;50.104;8.754;2023-04-20T01:38:32;100631.94;;;8.44;46.69
22206;BME280;11272;50.104;8.754;2023-04-20T01:41:03;100625.81;;;8.42;46.44
22206;BME280;11272;50.104;8.754;2023-04-20T01:43:28;100626.75;;;8.38;46.24
22206;BME280;11272;50.104;8.754;2023-04-20T01:45:57;100625.88;;;8.36;46.64
22206;BME280;11272;50.104;8.754;2023-04-20T01:48:23;100629.44;;;8.32;46.29
22206;BME280;11272;50.104;8.754;2023-04-20T01:50:52;100626.81;;;8.28;46.41
22206;BME280;11272;50.104;8.754;2023-04-20T01:53:18;100631.25;;;8.21;47.10
22206;BME280;11272;50.104;8.754;2023-04-20T01:55:46;100617.19;;;8.16;46.94
22206;BME280;11272;50.104;8.754;2023-04-20T01:58:12;100623.38;;;8.12;47.37
22206;BME280;11272;50.104;8.754;2023-04-20T02:00:38;100626.06;;;8.09;47.09
22206;BME280;11272;50.104;8.754;2023-04-20T02:03:05;100620.78;;;8.08;47.29
22206;BME280;11272;50.104;8.754;2023-04-20T02:05:30;100616.41;;;8.05;47.29
22206;BME280;11272;50.104;8.754;2023-04-20T02:07:56;100615.53;;;8.04;47.20
22206;BME280;11272;50.104;8.754;2023-04-20T02:10:24;100615.53;;;8.03;47.43
22206;BME280;11272;50.104;8.754;2023-04-20T02:12:50;100614.69;;;8.01;47.52
22206;BME280;11272;50.104;8.754;2023-04-20T02:15:21;100612.94;;;8.00;48.13
22206;BME280;11272;50.104;8.754;2023-04-20T02:17:47;100613.81;;;7.99;47.61
22206;BME280;11272;50.104;8.754;2023-04-20T02:20:19;100620.00;;;7.98;47.70
22206;BME280;11272;50.104;8.754;2023-04-20T02:22:45;100616.47;;;7.99;47.94
22206;BME280;11272;50.104;8.754;2023-04-20T02:25:10;100612.94;;;7.97;48.14
22206;BME280;11272;50.104;8.754;2023-04-20T02:27:36;100616.47;;;7.96;48.22
22206;BME280;11272;50.104;8.754;2023-04-20T02:30:07;100611.22;;;7.94;48.32
22206;BME280;11272;50.104;8.754;2023-04-20T02:32:33;100612.09;;;7.95;48.64
22206;BME280;11272;50.104;8.754;2023-04-20T02:35:01;100612.06;;;7.96;48.81
22206;BME280;11272;50.104;8.754;2023-04-20T02:37:28;100615.59;;;7.97;48.77
22206;BME280;11272;50.104;8.754;2023-04-20T02:39:55;100605.94;;;7.93;49.03
22206;BME280;11272;50.104;8.754;2023-04-20T02:42:24;100613.84;;;7.91;48.94
22206;BME280;11272;50.104;8.754;2023-04-20T02:44:56;100610.34;;;7.91;48.82
22206;BME280;11272;50.104;8.754;2023-04-20T02:47:25;100609.44;;;7.92;49.05
22206;BME280;11272;50.104;8.754;2023-04-20T02:49:52;100611.22;;;7.93;49.00
22206;BME280;11272;50.104;8.754;2023-04-20T02:52:20;100610.28;;;7.97;49.26
22206;BME280;11272;50.104;8.754;2023-04-20T02:54:48;100606.75;;;8.01;49.13
22206;BME280;11272;50.104;8.754;2023-04-20T02:57:14;100604.06;;;8.04;49.48
22206;BME280;11272;50.104;8.754;2023-04-20T02:59:42;100601.44;;;8.06;49.36
22206;BME280;11272;50.104;8.754;2023-04-20T03:04:39;100605.78;;;8.11;49.54
22206;BME280;11272;50.104;8.754;2023-04-20T03:07:13;100599.56;;;8.14;49.62
22206;BME280;11272;50.104;8.754;2023-04-20T03:09:40;100597.81;;;8.16;50.01
22206;BME280;11272;50.104;8.754;2023-04-20T03:12:22;100598.69;;;8.16;49.91
22206;BME280;11272;50.104;8.754;2023-04-20T03:15:07;100596.00;;;8.21;50.07
22206;BME280;11272;50.104;8.754;2023-04-20T03:17:55;100599.47;;;8.27;49.85
22206;BME280;11272;50.104;8.754;2023-04-20T03:20:20;100594.16;;;8.32;50.12
22206;BME280;11272;50.104;8.754;2023-04-20T03:22:46;100591.47;;;8.38;50.34
22206;BME280;11272;50.104;8.754;2023-04-20T03:25:12;100587.88;;;8.40;50.32
22206;BME280;11272;50.104;8.754;2023-04-20T03:27:48;100590.53;;;8.39;50.47
22206;BME280;11272;50.104;8.754;2023-04-20T03:30:14;100587.88;;;8.40;50.95
22206;BME280;11272;50.104;8.754;2023-04-20T03:32:41;100589.59;;;8.44;50.76
22206;BME280;11272;50.104;8.754;2023-04-20T03:35:07;100588.72;;;8.47;51.13
22206;BME280;11272;50.104;8.754;2023-04-20T03:37:35;100580.72;;;8.50;50.90
22206;BME280;11272;50.104;8.754;2023-04-20T03:40:01;100587.78;;;8.50;50.78
22206;BME280;11272;50.104;8.754;2023-04-20T03:42:26;100581.66;;;8.49;51.41
22206;BME280;11272;50.104;8.754;2023-04-20T03:44:53;100584.25;;;8.51;51.59
22206;BME280;11272;50.104;8.754;2023-04-20T03:47:18;100585.19;;;8.48;51.73
22206;BME280;11272;50.104;8.754;2023-04-20T03:49:44;100586.06;;;8.45;52.21
22206;BME280;11272;50.104;8.754;2023-04-20T03:52:10;100582.59;;;8.40;52.73
22206;BME280;11272;50.104;8.754;2023-04-20T03:54:35;100580.88;;;8.36;52.96
22206;BME280;11272;50.104;8.754;2023-04-20T03:57:01;100577.41;;;8.31;53.42
22206;BME280;11272;50.104;8.754;2023-04-20T03:59:27;100571.25;;;8.26;53.96
22206;BME280;11272;50.104;8.754;2023-04-20T04:01:52;100572.25;;;8.16;54.71
22206;BME280;11272;50.104;8.754;2023-04-20T04:04:19;100572.28;;;8.10;55.04
22206;BME280;11272;50.104;8.754;2023-04-20T04:06:44;100577.63;;;8.06;56.14
22206;BME280;11272;50.104;8.754;2023-04-20T04:09:10;100570.59;;;8.03;56.20
22206;BME280;11272;50.104;8.754;2023-04-20T04:11:36;100576.75;;;8.05;56.68
22206;BME280;11272;50.104;8.754;2023-04-20T04:14:01;100575.88;;;8.03;56.91
22206;BME280;11272;50.104;8.754;2023-04-20T04:16:30;100566.22;;;8.00;57.82
22206;BME280;11272;50.104;8.754;2023-04-20T04:18:56;100580.31;;;7.98;58.40
22206;BME280;11272;50.104;8.754;2023-04-20T04:21:22;100572.44;;;7.92;58.54
22206;BME280;11272;50.104;8.754;2023-04-20T04:23:54;100575.13;;;7.89;59.10
22206;BME280;11272;50.104;8.754;2023-04-20T04:26:28;100576.88;;;7.88;59.22
22206;BME280;11272;50.104;8.754;2023-04-20T04:28:53;100576.88;;;7.88;59.63
22206;BME280;11272;50.104;8.754;2023-04-20T04:31:20;100570.69;;;7.91;59.82
22206;BME280;11272;50.104;8.754;2023-04-20T04:33:46;100568.91;;;7.93;60.26
22206;BME280;11272;50.104;8.754;2023-04-20T04:36:23;100564.50;;;7.92;60.49
22206;BME280;11272;50.104;8.754;2023-04-20T04:38:52;100568.94;;;7.90;60.75
22206;BME280;11272;50.104;8.754;2023-04-20T04:41:18;100568.06;;;7.89;61.58
22206;BME280;11272;50.104;8.754;2023-04-20T04:43:46;100572.44;;;7.92;61.70
22206;BME280;11272;50.104;8.754;2023-04-20T04:46:24;100576.84;;;7.91;61.76
22206;BME280;11272;50.104;8.754;2023-04-20T04:48:49;100561.88;;;7.92;62.10
22206;BME280;11272;50.104;8.754;2023-04-20T04:51:17;100560.09;;;7.94;62.53
22206;BME280;11272;50.104;8.754;2023-04-20T04:53:42;100564.50;;;7.93;62.72
22206;BME280;11272;50.104;8.754;2023-04-20T04:56:11;100570.69;;;7.91;62.96
22206;BME280;11272;50.104;8.754;2023-04-20T04:58:37;100567.19;;;7.90;63.35
22206;BME280;11272;50.104;8.754;2023-04-20T05:01:05;100565.38;;;7.91;63.53
22206;BME280;11272;50.104;8.754;2023-04-20T05:03:31;100566.31;;;7.85;63.45
22206;BME280;11272;50.104;8.754;2023-04-20T05:05:56;100569.88;;;7.81;64.36
22206;BME280;11272;50.104;8.754;2023-04-20T05:08:22;100574.28;;;7.81;64.27
22206;BME280;11272;50.104;8.754;2023-04-20T05:10:50;100569.88;;;7.83;64.47
22206;BME280;11272;50.104;8.754;2023-04-20T05:13:16;100569.88;;;7.84;65.18
22206;BME280;11272;50.104;8.754;2023-04-20T05:15:43;100569.84;;;7.87;65.09
22206;BME280;11272;50.104;8.754;2023-04-20T05:18:09;100567.19;;;7.86;65.43
22206;BME280;11272;50.104;8.754;2023-04-20T05:20:34;100568.13;;;7.82;65.87
22206;BME280;11272;50.104;8.754;2023-04-20T05:23:00;100569.88;;;7.84;65.99
22206;BME280;11272;50.104;8.754;2023-04-20T05:25:25;100565.44;;;7.88;66.54
22206;BME280;11272;50.104;8.754;2023-04-20T05:27:51;100568.91;;;7.93;66.39
22206;BME280;11272;50.104;8.754;2023-04-20T05:30:17;100566.22;;;7.96;66.40
22206;BME280;11272;50.104;8.754;2023-04-20T05:32:42;100567.94;;;8.03;66.83
22206;BME280;11272;50.104;8.754;2023-04-20T05:35:08;100575.81;;;8.09;66.86
22206;BME280;11272;50.104;8.754;2023-04-20T05:37:34;100575.75;;;8.17;66.97
22206;BME280;11272;50.104;8.754;2023-04-20T05:39:59;100571.31;;;8.19;66.90
22206;BME280;11272;50.104;8.754;2023-04-20T05:42:25;100567.78;;;8.18;66.78
22206;BME280;11272;50.104;8.754;2023-04-20T05:44:50;100564.25;;;8.22;66.87
22206;BME280;11272;50.104;8.754;2023-04-20T05:47:16;100575.66;;;8.30;66.94
22206;BME280;11272;50.104;8.754;2023-04-20T05:49:42;100577.34;;;8.37;66.87
22206;BME280;11272;50.104;8.754;2023-04-20T05:52:10;100576.41;;;8.41;66.90
22206;BME280;11272;50.104;8.754;2023-04-20T05:54:37;100575.53;;;8.39;66.79
22206;BME280;11272;50.104;8.754;2023-04-20T05:57:02;100578.19;;;8.39;66.80
22206;BME280;11272;50.104;8.754;2023-04-20T05:59:30;100578.16;;;8.44;66.44
22206;BME280;11272;50.104;8.754;2023-04-20T06:01:55;100572.78;;;8.53;66.98
22206;BME280;11272;50.104;8.754;2023-04-20T06:04:22;100567.44;;;8.58;66.59
22206;BME280;11272;50.104;8.754;2023-04-20T06:06:48;100570.81;;;8.69;66.53
22206;BME280;11272;50.104;8.754;2023-04-20T06:09:15;100573.47;;;8.69;66.37
22206;BME280;11272;50.104;8.754;2023-04-20T06:11:41;100578.75;;;8.70;66.61
22206;BME280;11272;50.104;8.754;2023-04-20T06:14:10;100569.88;;;8.73;66.92
22206;BME280;11272;50.104;8.754;2023-04-20T06:17:06;100582.19;;;8.78;66.64
22206;BME280;11272;50.104;8.754;2023-04-20T06:20:20;100581.31;;;8.78;65.99
22206;BME280;11272;50.104;8.754;2023-04-20T06:22:46;100581.34;;;8.75;66.64
22206;BME280;11272;50.104;8.754;2023-04-20T06:25:12;100582.25;;;8.74;66.55
22206;BME280;11272;50.104;8.754;2023-04-20T06:27:38;100582.22;;;8.75;66.23
22206;BME280;11272;50.104;8.754;2023-04-20T06:30:04;100585.72;;;8.79;66.60
22206;BME280;11272;50.104;8.754;2023-04-20T06:32:30;100580.34;;;8.83;66.32
22206;BME280;11272;50.104;8.754;2023-04-20T06:34:56;100580.34;;;8.85;66.51
22206;BME280;11272;50.104;8.754;2023-04-20T06:37:21;100572.41;;;8.83;65.96
22206;BME280;11272;50.104;8.754;2023-04-20T06:39:47;100571.53;;;8.83;66.03
22206;BME280;11272;50.104;8.754;2023-04-20T06:42:17;100564.47;;;8.83;65.43
22206;BME280;11272;50.104;8.754;2023-04-20T06:44:42;100568.88;;;8.83;65.96
22206;BME280;11272;50.104;8.754;2023-04-20T06:47:08;100564.53;;;8.80;65.46
22206;BME280;11272;50.104;8.754;2023-04-20T06:49:33;100563.66;;;8.78;65.22
22206;BME280;11272;50.104;8.754;2023-04-20T06:52:01;100556.59;;;8.77;65.76
22206;BME280;11272;50.104;8.754;2023-04-20T06:54:27;100558.41;;;8.75;65.42
22206;BME280;11272;50.104;8.754;2023-04-20T06:56:53;100555.75;;;8.74;65.46
22206;BME280;11272;50.104;8.754;2023-04-20T06:59:18;100552.22;;;8.75;65.65
22206;BME280;11272;50.104;8.754;2023-04-20T07:01:44;100546.94;;;8.72;65.50
22206;BME280;11272;50.104;8.754;2023-04-20T07:04:10;100550.53;;;8.69;65.46
22206;BME280;11272;50.104;8.754;2023-04-20T07:06:36;100562.00;;;8.70;65.39
22206;BME280;11272;50.104;8.754;2023-04-20T07:09:03;100570.78;;;8.72;65.60
22206;BME280;11272;50.104;8.754;2023-04-20T07:11:29;100565.53;;;8.69;65.81
22206;BME280;11272;50.104;8.754;2023-04-20T07:13:55;100554.06;;;8.68;65.70
22206;BME280;11272;50.104;8.754;2023-04-20T07:16:20;100569.91;;;8.71;65.58
22206;BME280;11272;50.104;8.754;2023-04-20T07:18:46;100573.41;;;8.75;65.17
22206;BME280;11272;50.104;8.754;2023-04-20T07:21:12;100563.66;;;8.77;64.92
22206;BME280;11272;50.104;8.754;2023-04-20T07:23:39;100560.94;;;8.83;64.91
22206;BME280;11272;50.104;8.754;2023-04-20T07:26:05;100572.34;;;8.88;65.25
22206;BME280;11272;50.104;8.754;2023-04-20T07:28:32;100567.84;;;8.96;65.06
22206;BME280;11272;50.104;8.754;2023-04-20T07:30:57;100561.53;;;9.05;64.73
22206;BME280;11272;50.104;8.754;2023-04-20T07:33:24;100557.00;;;9.14;64.83
22206;BME280;11272;50.104;8.754;2023-04-20T07:35:50;100554.25;;;9.23;64.34
22206;BME280;11272;50.104;8.754;2023-04-20T07:38:16;100560.22;;;9.38;64.73
22206;BME280;11272;50.104;8.754;2023-04-20T07:40:42;100567.03;;;9.52;64.02
22206;BME280;11272;50.104;8.754;2023-04-20T07:43:07;100565.03;;;9.68;63.96
22206;BME280;11272;50.104;8.754;2023-04-20T07:48:43;100570.94;;;10.39;63.58
22206;BME280;11272;50.104;8.754;2023-04-20T07:51:09;100577.97;;;10.86;63.13
22206;BME280;11272;50.104;8.754;2023-04-20T07:53:34;100564.53;;;11.35;63.06
22206;BME280;11272;50.104;8.754;2023-04-20T07:56:00;100558.19;;;11.79;61.33
22206;BME280;11272;50.104;8.754;2023-04-20T07:58:26;100554.97;;;12.02;59.94
22206;BME280;11272;50.104;8.754;2023-04-20T08:00:51;100559.91;;;12.17;59.15
22206;BME280;11272;50.104;8.754;2023-04-20T08:03:18;100545.97;;;12.40;58.55
22206;BME280;11272;50.104;8.754;2023-04-20T08:05:45;100549.03;;;12.88;57.99
22206;BME280;11272;50.104;8.754;2023-04-20T08:08:10;100550.81;;;13.47;57.56
22206;BME280;11272;50.104;8.754;2023-04-20T08:10:36;100546.19;;;13.80;55.53
22206;BME280;11272;50.104;8.754;2023-04-20T08:13:02;100547.72;;;14.15;55.18
22206;BME280;11272;50.104;8.754;2023-04-20T08:15:28;100541.50;;;14.64;54.47
22206;BME280;11272;50.104;8.754;2023-04-20T08:17:53;100537.03;;;14.90;52.19
22206;BME280;11272;50.104;8.754;2023-04-20T08:20:19;100529.81;;;15.15;51.76
22206;BME280;11272;50.104;8.754;2023-04-20T08:22:44;100522.75;;;15.59;51.04
22206;BME280;11272;50.104;8.754;2023-04-20T08:25:10;100518.56;;;16.16;50.33
22206;BME280;11272;50.104;8.754;2023-04-20T08:27:36;100517.38;;;16.63;48.79
22206;BME280;11272;50.104;8.754;2023-04-20T08:30:01;100508.19;;;16.49;47.25
22206;BME280;11272;50.104;8.754;2023-04-20T08:32:30;100509.59;;;16.37;46.81
22206;BME280;11272;50.104;8.754;2023-04-20T08:34:56;100504.84;;;16.43;46.25
22206;BME280;11272;50.104;8.754;2023-04-20T08:37:21;100498.81;;;16.38;45.85
22206;BME280;11272;50.104;8.754;2023-04-20T08:39:47;100504.00;;;16.41;45.57
22206;BME280;11272;50.104;8.754;2023-04-20T08:42:13;100501.44;;;16.79;44.84
22206;BME280;11272;50.104;8.754;2023-04-20T08:44:40;100500.63;;;16.97;44.10
22206;BME280;11272;50.104;8.754;2023-04-20T08:47:08;100492.63;;;16.96;43.59
22206;BME280;11272;50.104;8.754;2023-04-20T08:49:34;100494.97;;;17.03;43.28
22206;BME280;11272;50.104;8.754;2023-04-20T08:52:00;100488.34;;;17.29;42.86
22206;BME280;11272;50.104;8.754;2023-04-20T08:54:26;100495.72;;;17.43;42.24
22206;BME280;11272;50.104;8.754;2023-04-20T08:56:51;100497.41;;;17.64;41.84
22206;BME280;11272;50.104;8.754;2023-04-20T08:59:17;100494.69;;;18.17;41.47
22206;BME280;11272;50.104;8.754;2023-04-20T09:01:43;100478.03;;;18.78;40.67
22206;BME280;11272;50.104;8.754;2023-04-20T09:04:28;100482.34;;;19.45;39.79
22206;BME280;11272;50.104;8.754;2023-04-20T09:06:56;100474.50;;;19.71;39.04
22206;BME280;11272;50.104;8.754;2023-04-20T09:09:23;100472.56;;;19.59;38.00
22206;BME280;11272;50.104;8.754;2023-04-20T09:12:03;100479.56;;;19.30;38.24
22206;BME280;11272;50.104;8.754;2023-04-20T09:14:40;100474.25;;;19.13;37.73
22206;BME280;11272;50.104;8.754;2023-04-20T09:17:06;100464.97;;;19.34;38.02
22206;BME280;11272;50.104;8.754;2023-04-20T09:19:31;100462.78;;;19.72;37.18
22206;BME280;11272;50.104;8.754;2023-04-20T09:21:58;100452.84;;;20.18;36.95
22206;BME280;11272;50.104;8.754;2023-04-20T09:24:32;100445.78;;;20.60;36.55
22206;BME280;11272;50.104;8.754;2023-04-20T09:26:58;100442.59;;;20.39;35.92
22206;BME280;11272;50.104;8.754;2023-04-20T09:29:24;100443.75;;;20.78;35.60
22206;BME280;11272;50.104;8.754;2023-04-20T09:31:52;100438.13;;;21.50;34.87
22206;BME280;11272;50.104;8.754;2023-04-20T09:34:19;100430.31;;;22.12;33.88
22206;BME280;11272;50.104;8.754;2023-04-20T09:36:48;100422.66;;;22.18;33.00
22206;BME280;11272;50.104;8.754;2023-04-20T09:39:20;100431.75;;;21.91;32.78
22206;BME280;11272;50.104;8.754;2023-04-20T09:41:47;100426.59;;;21.88;32.97
22206;BME280;11272;50.104;8.754;2023-04-20T09:44:15;100426.34;;;21.91;32.56
22206;BME280;11272;50.104;8.754;2023-04-20T09:46:42;100418.97;;;21.67;32.38
22206;BME280;11272;50.104;8.754;2023-04-20T09:49:10;100410.00;;;21.40;32.25
22206;BME280;11272;50.104;8.754;2023-04-20T09:51:37;100409.13;;;20.84;32.16
22206;BME280;11272;50.104;8.754;2023-04-20T09:54:05;100408.19;;;20.43;32.39
22206;BME280;11272;50.104;8.754;2023-04-20T09:56:31;100401.75;;;20.15;32.60
22206;BME280;11272;50.104;8.754;2023-04-20T09:58:58;100394.09;;;20.24;33.08
22206;BME280;11272;50.104;8.754;2023-04-20T10:01:24;100393.78;;;20.85;32.53
22206;BME280;11272;50.104;8.754;2023-04-20T10:03:51;100390.13;;;21.14;32.06
22206;BME280;11272;50.104;8.754;2023-04-20T10:06:22;100394.78;;;21.91;31.97
22206;BME280;11272;50.104;8.754;2023-04-20T10:08:48;100388.81;;;22.38;31.10
22206;BME280;11272;50.104;8.754;2023-04-20T10:11:33;100381.59;;;22.88;30.73
22206;BME280;11272;50.104;8.754;2023-04-20T10:14:12;100382.38;;;22.64;29.90
22206;BME280;11272;50.104;8.754;2023-04-20T10:16:38;100381.09;;;22.07;29.88
22206;BME280;11272;50.104;8.754;2023-04-20T10:19:04;100386.56;;;21.53;29.94
22206;BME280;11272;50.104;8.754;2023-04-20T10:21:31;100383.63;;;21.02;29.83
22206;BME280;11272;50.104;8.754;2023-04-20T10:23:59;100380.19;;;20.86;30.51
22206;BME280;11272;50.104;8.754;2023-04-20T10:26:36;100375.91;;;21.25;30.53
22206;BME280;11272;50.104;8.754;2023-04-20T10:29:02;100367.03;;;22.14;30.04
22206;BME280;11272;50.104;8.754;2023-04-20T10:31:35;100358.03;;;22.64;29.41
22206;BME280;11272;50.104;8.754;2023-04-20T10:34:02;100359.63;;;22.80;28.90
22206;BME280;11272;50.104;8.754;2023-04-20T10:36:30;100354.53;;;22.62;28.60
22206;BME280;11272;50.104;8.754;2023-04-20T10:38:59;100361.72;;;22.25;28.54
22206;BME280;11272;50.104;8.754;2023-04-20T10:41:30;100362.19;;;22.32;28.62
22206;BME280;11272;50.104;8.754;2023-04-20T10:44:06;100355.91;;;22.32;28.30
22206;BME280;11272;50.104;8.754;2023-04-20T10:46:32;100360.31;;;21.95;28.42
22206;BME280;11272;50.104;8.754;2023-04-20T10:48:59;100353.81;;;21.45;28.37
22206;BME280;11272;50.104;8.754;2023-04-20T10:51:31;100362.19;;;20.87;28.81
22206;BME280;11272;50.104;8.754;2023-04-20T10:54:06;100349.97;;;21.08;29.15
22206;BME280;11272;50.104;8.754;2023-04-20T10:56:48;100344.22;;;21.66;29.23
22206;BME280;11272;50.104;8.754;2023-04-20T10:59:16;100339.22;;;22.12;28.63
22206;BME280;11272;50.104;8.754;2023-04-20T11:01:44;100341.59;;;22.42;28.43
22206;BME280;11272;50.104;8.754;2023-04-20T11:04:13;100344.38;;;21.77;28.13
22206;BME280;11272;50.104;8.754;2023-04-20T11:06:41;100337.88;;;20.87;28.64
22206;BME280;11272;50.104;8.754;2023-04-20T11:09:19;100335.13;;;20.17;29.24
22206;BME280;11272;50.104;8.754;2023-04-20T11:11:45;100328.41;;;19.66;30.01
22206;BME280;11272;50.104;8.754;2023-04-20T11:14:11;100339.94;;;19.39;30.47
22206;BME280;11272;50.104;8.754;2023-04-20T11:16:50;100324.53;;;19.11;30.58
22206;BME280;11272;50.104;8.754;2023-04-20T11:19:21;100322.38;;;18.86;31.11
22206;BME280;11272;50.104;8.754;2023-04-20T11:21:48;100313.81;;;18.79;31.23
22206;BME280;11272;50.104;8.754;2023-04-20T11:24:18;100310.72;;;19.17;31.47
22206;BME280;11272;50.104;8.754;2023-04-20T11:26:48;100309.66;;;19.19;31.30
22206;BME280;11272;50.104;8.754;2023-04-20T11:29:31;100300.50;;;18.92;31.49
22206;BME280;11272;50.104;8.754;2023-04-20T11:32:05;100298.19;;;18.55;31.74
22206;BME280;11272;50.104;8.754;2023-04-20T11:34:35;100301.75;;;18.22;32.11
22206;BME280;11272;50.104;8.754;2023-04-20T11:37:10;100295.28;;;17.93;32.26
22206;BME280;11272;50.104;8.754;2023-04-20T11:39:38;100288.13;;;17.77;32.66
22206;BME280;11272;50.104;8.754;2023-04-20T11:42:04;100292.56;;;17.60;32.82
22206;BME280;11272;50.104;8.754;2023-04-20T11:44:30;100295.09;;;17.46;33.08
22206;BME280;11272;50.104;8.754;2023-04-20T11:46:58;100300.28;;;17.49;33.45
22206;BME280;11272;50.104;8.754;2023-04-20T11:49:25;100289.03;;;17.60;33.56
22206;BME280;11272;50.104;8.754;2023-04-20T11:51:51;100292.41;;;17.63;33.87
22206;BME280;11272;50.104;8.754;2023-04-20T11:54:17;100292.72;;;17.75;34.06
22206;BME280;11272;50.104;8.754;2023-04-20T11:56:46;100301.09;;;18.01;33.96
22206;BME280;11272;50.104;8.754;2023-04-20T11:59:12;100289.50;;;18.01;33.93
22206;BME280;11272;50.104;8.754;2023-04-20T12:01:39;100286.22;;;18.12;34.13
22206;BME280;11272;50.104;8.754;2023-04-20T12:04:05;100294.66;;;18.21;34.05
22206;BME280;11272;50.104;8.754;2023-04-20T12:06:31;100294.16;;;18.30;34.35
22206;BME280;11272;50.104;8.754;2023-04-20T12:08:57;100280.91;;;18.43;34.08
22206;BME280;11272;50.104;8.754;2023-04-20T12:11:23;100274.41;;;18.63;33.53
22206;BME280;11272;50.104;8.754;2023-04-20T12:13:52;100281.06;;;18.87;32.76
22206;BME280;11272;50.104;8.754;2023-04-20T12:16:29;100266.34;;;19.68;32.93
22206;BME280;11272;50.104;8.754;2023-04-20T12:18:55;100262.59;;;20.82;31.16
22206;BME280;11272;50.104;8.754;2023-04-20T12:21:21;100266.16;;;21.10;30.87
22206;BME280;11272;50.104;8.754;2023-04-20T12:23:46;100256.25;;;20.69;30.90
22206;BME280;11272;50.104;8.754;2023-04-20T12:26:13;100261.84;;;20.11;31.26
22206;BME280;11272;50.104;8.754;2023-04-20T12:28:39;100265.31;;;19.70;31.50
22206;BME280;11272;50.104;8.754;2023-04-20T12:31:05;100265.41;;;19.39;31.77
22206;BME280;11272;50.104;8.754;2023-04-20T12:33:32;100264.59;;;19.23;32.29
22206;BME280;11272;50.104;8.754;2023-04-20T12:35:57;100258.00;;;19.43;32.57
22206;BME280;11272;50.104;8.754;2023-04-20T12:38:23;100256.47;;;19.97;32.06
22206;BME280;11272;50.104;8.754;2023-04-20T12:40:48;100249.44;;;20.08;31.77
22206;BME280;11272;50.104;8.754;2023-04-20T12:43:15;100251.75;;;19.86;31.19
22206;BME280;11272;50.104;8.754;2023-04-20T12:45:40;100251.31;;;19.50;31.50
22206;BME280;11272;50.104;8.754;2023-04-20T12:48:06;100250.41;;;19.05;31.63
22206;BME280;11272;50.104;8.754;2023-04-20T12:50:32;100254.72;;;18.62;32.54
22206;BME280;11272;50.104;8.754;2023-04-20T12:52:58;100262.56;;;18.18;33.21
22206;BME280;11272;50.104;8.754;2023-04-20T12:55:24;100270.75;;;17.84;33.67
22206;BME280;11272;50.104;8.754;2023-04-20T12:57:50;100271.44;;;17.53;33.65
22206;BME280;11272;50.104;8.754;2023-04-20T13:00:16;100273.44;;;17.32;33.94
22206;BME280;11272;50.104;8.754;2023-04-20T13:02:42;100276.78;;;17.20;34.08